Date,TemperatureHighF,TemperatureAvgF,TemperatureLowF,DewpointHighF,DewpointAvgF,DewpointLowF,HumidityHigh,HumidityAvg,HumidityLow,PressureMaxIn,PressureMinIn,WindSpeedMaxMPH,WindSpeedAvgMPH,GustSpeedMaxMPH,PrecipitationSumIn
2014-4-23,46,45,45,36,-73,-100,69,67,67,29.84,29.72,16,10,21,0.00
2014-4-24,54,47,38,32,-44,-100,67,53,37,30.06,29.83,23,10,25,0.00
2014-4-25,59,50,42,35,-19,-100,61,45,27,30.12,29.80,12,4,14,0.00
2014-4-26,49,44,41,46,42,33,95,90,60,29.91,29.77,9,1,0,0.36
2014-4-27,47,41,37,41,38,35,95,88,73,30.22,29.91,14,4,20,0.09
2014-4-28,54,45,33,42,38,31,95,76,59,30.25,30.15,18,6,21,0.00
2014-4-29,59,49,42,41,38,32,89,66,40,30.50,30.25,11,2,16,0.02
2014-4-30,47,42,39,42,39,36,95,88,74,30.52,30.11,14,3,18,0.36
2014-5-1,66,52,43,58,48,41,96,89,71,30.11,29.70,15,2,18,0.49
2014-5-2,61,50,39,48,42,36,96,73,48,29.86,29.72,13,2,17,0.00
2014-5-3,62,51,45,50,45,40,96,82,58,29.89,29.71,10,1,19,0.05
2014-5-4,56,48,43,47,44,41,97,86,62,29.77,29.58,10,1,16,0.31
2014-5-5,55,47,43,45,42,40,97,83,65,29.98,29.76,12,1,0,0.02
2014-5-6,58,47,36,41,10,-100,93,67,39,30.15,29.94,14,3,19,0.00
2014-5-7,62,49,34,42,36,30,84,61,40,30.33,30.15,11,3,14,0.00
2014-5-8,66,52,34,44,37,31,91,61,36,30.25,30.15,15,4,20,0.00
2014-5-9,62,50,46,55,-36,-100,91,84,53,30.22,30.00,10,1,13,0.02
2014-5-10,80,68,57,68,55,35,97,69,31,30.01,29.74,13,3,16,0.33
2014-5-11,76,61,45,49,44,40,86,55,33,30.07,29.87,10,2,14,0.00
2014-5-12,78,64,47,58,47,39,79,54,36,30.15,30.06,14,2,15,0.00
2014-5-13,63,57,52,52,46,40,78,69,56,30.29,30.15,13,3,14,0.00
2014-5-14,79,66,54,63,54,46,77,66,53,30.27,30.14,11,3,15,0.00
2014-5-15,76,68,64,68,62,52,93,82,62,30.22,30.09,8,2,12,0.00
2014-5-16,72,69,65,65,63,61,93,81,72,30.09,29.81,18,6,22,0.07
2014-5-17,68,56,43,63,48,38,96,75,43,30.17,29.80,7,1,0,0.92
2014-5-18,64,50,35,44,29,-100,96,68,39,30.27,30.16,12,2,15,0.00
2014-5-19,66,54,44,45,-38,-100,77,60,37,30.23,30.10,16,2,19,0.00
2014-5-20,70,62,57,50,-39,-100,67,48,36,30.18,30.03,18,2,19,0.00
2014-5-21,77,67,55,54,-23,-100,75,45,27,30.06,29.88,6,0,0,0.00
2014-5-22,55,55,55,-100,-100,-100,74,74,74,29.90,29.85,0,0,0,0.00
2014-5-23,63,58,55,60,-53,-100,97,83,74,30.02,29.88,9,1,0,0.00
2014-5-24,68,62,58,59,-29,-100,92,84,64,30.12,30.01,6,0,12,0.02
2014-5-25,78,64,58,62,-24,-100,98,80,45,30.14,29.99,4,0,0,0.00
2014-5-26,70,62,58,64,-58,-100,91,87,72,29.99,29.83,7,0,0,0.02
2014-5-27,79,70,64,67,-58,-100,87,79,64,29.90,29.74,5,0,0,0.01
2014-5-28,75,67,55,53,-62,-100,86,78,70,30.27,29.90,3,0,0,0.00
2014-5-29,71,61,55,54,-35,-100,86,71,45,30.30,30.12,6,0,0,0.00
2014-5-30,69,63,59,59,-30,-100,88,74,62,30.17,30.08,11,1,13,0.03
2014-5-31,66,62,57,57,-32,-100,85,75,63,30.36,30.17,13,2,19,0.00
2014-6-1,76,68,62,60,-33,-100,82,61,47,30.41,30.20,6,1,0,0.00
2014-6-2,83,75,68,65,-26,-100,65,54,45,30.21,29.97,7,1,0,0.00
2014-6-3,88,75,68,73,-25,-100,97,73,57,30.00,29.77,8,1,0,0.47
2014-6-4,76,70,67,62,-29,-100,97,74,52,29.89,29.75,5,1,0,0.00
2014-6-5,76,67,60,60,-27,-100,82,64,48,29.82,29.69,15,4,21,0.00
2014-6-6,72,65,60,59,-26,-100,89,73,56,29.97,29.81,14,4,17,0.01
2014-6-7,82,71,63,64,-23,-100,82,64,47,30.04,29.93,5,0,0,0.00
2014-6-8,83,71,63,68,-22,-100,82,70,45,30.00,29.87,5,0,0,0.00
2014-6-9,80,72,68,67,-30,-100,80,73,55,30.01,29.89,10,1,0,0.00
2014-6-10,74,70,64,65,-17,-100,88,76,65,30.11,29.97,16,4,18,0.00
2014-6-11,69,64,58,60,-45,-100,95,85,64,30.21,30.11,5,2,0,0.34
2014-6-12,58,55,41,-100,-100,-100,95,84,38,30.15,30.00,1,0,0,0.00
2014-6-13,70,50,41,67,-91,-100,95,54,38,30.00,29.78,2,1,0,0.00
2014-6-14,71,67,64,63,-65,-100,91,83,59,30.04,29.79,9,0,0,0.00
2014-6-15,72,66,60,61,-14,-100,81,73,56,30.17,30.03,9,2,14,0.00
2014-6-16,78,73,69,65,8,-100,75,66,49,30.10,30.03,3,0,0,0.00
2014-6-17,86,76,69,71,-32,-100,77,67,54,30.10,29.71,3,0,0,0.00
2014-6-18,80,78,71,68,-50,-100,86,65,60,30.01,29.71,16,1,0,0.00
2014-6-19,74,72,66,59,-32,-100,69,58,46,30.08,30.00,13,2,13,0.00
2014-6-20,68,66,60,50,-42,-100,62,56,50,30.08,30.01,14,2,15,0.00
2014-6-21,70,65,61,55,-38,-100,72,59,52,30.07,29.96,12,1,0,0.00
2014-6-22,76,70,68,61,-40,-100,69,57,51,30.07,29.99,10,1,1,0.00
2014-6-23,82,73,69,64,-35,-100,71,60,44,30.16,30.06,6,1,0,0.00
2014-6-24,77,73,69,67,-49,-100,83,69,63,30.10,29.93,5,0,1,0.00
2014-6-25,74,72,68,69,-69,-100,96,87,75,29.95,29.89,3,0,0,0.20
2014-6-26,77,72,68,68,-38,-100,96,84,65,30.07,29.87,16,3,0,0.00
2014-6-27,81,73,68,66,-31,-100,87,66,43,30.23,30.07,9,2,0,0.00
2014-6-28,86,74,68,69,-26,-100,82,71,43,30.33,30.23,4,0,0,0.00
2014-6-29,86,76,70,72,-32,-100,82,72,54,30.27,30.05,6,0,0,0.00
2014-6-30,84,80,74,74,-36,-100,78,69,65,30.06,29.89,6,0,0,0.00
2014-7-1,90,83,78,78,-32,-100,86,76,64,29.92,29.71,8,1,0,0.02
2014-7-2,92,80,72,79,-27,-100,94,81,55,29.94,29.78,4,1,0,0.09
2014-7-3,89,77,73,75,-41,-100,88,81,53,30.00,29.86,13,3,9,0.00
2014-7-4,73,70,64,67,-34,-100,95,84,77,30.06,29.95,12,5,15,0.00
2014-7-5,80,71,65,60,-36,-100,80,65,43,30.11,29.98,17,2,18,0.00
2014-7-6,84,76,70,65,-32,-100,71,56,41,30.02,29.85,9,1,0,0.00
2014-7-7,79,76,72,72,-29,-100,87,69,58,29.85,29.65,5,0,0,0.02
2014-7-8,86,80,75,75,-33,-100,87,77,66,29.78,29.52,6,1,0,0.00
2014-7-9,82,76,68,70,-33,-100,95,79,63,29.97,29.62,7,1,0,0.62
2014-7-10,78,71,68,63,22,55,93,75,48,30.22,29.97,4,0,0,0.00
2014-7-11,80,73,68,63,25,54,77,62,45,30.30,30.20,5,0,0,0.00
2014-7-12,85,77,72,71,25,62,75,67,57,30.25,30.07,6,0,0,0.00
2014-7-13,80,78,73,72,28,67,90,78,69,30.07,29.82,6,1,0,0.00
2014-7-15,78,76,75,74,32,70,91,86,83,29.78,29.73,6,0,0,0.01
2014-7-16,81,75,70,68,27,56,89,72,44,29.92,29.76,7,0,0,0.00
2014-7-17,75,71,68,64,23,56,78,67,52,30.14,29.92,5,0,0,0.00
2014-7-18,81,73,68,64,25,56,80,65,44,30.27,30.14,4,0,0,0.00
2014-7-19,82,73,67,66,26,59,83,70,49,30.33,30.22,4,0,0,0.00
2014-7-20,82,75,70,66,27,60,82,67,49,30.24,30.14,5,0,0,0.00
2014-7-21,85,78,73,70,26,63,72,65,50,30.23,30.14,5,0,0,0.00